მოწმენდილი ცა დაბალი და ალაგ-ალაგ მიმოფანტული ღრუბლებით
მოწმენდილი, რამდენიმე ფრთა-ღრუბლით
მოწმენდილი, რამდენიმე ფრთა-ღრუბლით
მოწმენდილი, რამდენიმე ფრთა-ღრუბლით
მოწმენდილი, რამდენიმე ფრთა-ღრუბლით
მოწმენდილი, რამდენიმე ფრთა-ღრუბლით
მოწმენდილი, მაგრამ ნისლიანი რამოდენიმე ღრუბლით
(°C)
22°
20°
18°
16°
14°
12°
11°
(°C)
20°
17°
15°
14°
12°
11°
10°
სამხრ.
სამხრ.
სამხრ.
სამხრ.
სსა
ასა
აღმ.
(კმ/სთ)
16-26
16-23
12-20
7-19
4-13
3-6
3-8
(მმ)
0
0
0
0
0
0
0
(%)
0
0
0
0
0
0
0

მზის სიმაღლე

/ 24.1°
sun-icon
UV 7
07:07
19:17
ახალგაზრდა მთვარე (343°)
06:43
17:57

METAR Alcantarilla (LERI)-თვის

დრო პირობები ტემპერატურა/
ნამი
ქარი ხილვადობა ამინდი ღრუბლები წნევა ცვლილება დაუმუშავებელი
VFR 23°C / 6°C 150º variable 120º to 180º 10kt >10km - Clouds and Visibility OK 1019 No Significant change LERI 201530Z 15010KT 120V180 CAVOK 23/06 Q1019 NOSIG
VFR 24°C / 7°C variable 4kt >10km - Few Clouds 5000ft 1019 No Significant change LERI 201500Z VRB04KT 9999 FEW050 24/07 Q1019 NOSIG
VFR 23°C / 2°C variable 3kt >10km - Few Clouds 5000ft 1019 No Significant change LERI 201430Z VRB03KT 9999 FEW050 23/02 Q1019 NOSIG
VFR 23°C / 3°C 10º variable 290º to 100º 5kt >10km - Few Clouds 5000ft 1019 No Significant change LERI 201400Z 01005KT 290V100 9999 FEW050 23/03 Q1019 NOSIG
VFR 22°C / 3°C variable 5kt >10km - Few Clouds 5000ft 1020 No Significant change LERI 201330Z VRB05KT 9999 FEW050 22/03 Q1020 NOSIG
VFR 22°C / 4°C variable 3kt >10km - Clouds and Visibility OK 1020 No Significant change LERI 201300Z VRB03KT CAVOK 22/04 Q1020 NOSIG
VFR 21°C / 4°C variable 2kt >10km - Few Clouds 4500ft 1021 No Significant change LERI 201230Z VRB02KT 9999 FEW045 21/04 Q1021 NOSIG
VFR 21°C / 4°C variable 4kt >10km - Few Clouds 4500ft 1022 No Significant change LERI 201200Z VRB04KT 9999 FEW045 21/04 Q1022 NOSIG
VFR 20°C / 4°C variable 3kt >10km - Few Clouds 4500ft 1022 No Significant change LERI 201130Z VRB03KT 9999 FEW045 20/04 Q1022 NOSIG
VFR 19°C / 4°C variable 2kt >10km - Few Clouds 4500ft 1023 No Significant change LERI 201100Z VRB02KT 9999 FEW045 19/04 Q1023 NOSIG
VFR 18°C / 4°C variable 2kt >10km - Few Clouds 4500ft 1023 No Significant change LERI 201030Z VRB02KT 9999 FEW045 18/04 Q1023 NOSIG
VFR 17°C / 4°C 80º variable 030º to 120º 3kt >10km - Clouds and Visibility OK 1023 No Significant change LERI 201000Z 08003KT 030V120 CAVOK 17/04 Q1023 NOSIG
VFR 16°C / 4°C variable 2kt >10km - Clouds and Visibility OK 1023 No Significant change LERI 200930Z VRB02KT CAVOK 16/04 Q1023 NOSIG
VFR 15°C / 5°C 100º 1kt >10km - Clouds and Visibility OK 1023 No Significant change LERI 200900Z 10001KT CAVOK 15/05 Q1023 NOSIG
VFR 14°C / 4°C variable 2kt >10km - Clouds and Visibility OK 1023 No Significant change LERI 200830Z VRB02KT CAVOK 14/04 Q1023 NOSIG
VFR 12°C / 6°C variable 2kt >10km - Clouds and Visibility OK 1023 No Significant change LERI 200800Z VRB02KT CAVOK 12/06 Q1023 NOSIG
VFR 10°C / 6°C variable 0kt >10km - Clouds and Visibility OK 1023 No Significant change LERI 200730Z 00000KT CAVOK 10/06 Q1023 NOSIG
VFR 7°C / 5°C variable 0kt >10km - Clouds and Visibility OK 1023 No Significant change LERI 200700Z 00000KT CAVOK 07/05 Q1023 NOSIG
VFR 5°C / 3°C variable 1kt >10km - Clouds and Visibility OK 1023 No Significant change LERI 200630Z VRB01KT CAVOK 05/03 Q1023 NOSIG
VFR 5°C / 3°C 270º 1kt >10km - Clouds and Visibility OK 1023 No Significant change LERI 200600Z 27001KT CAVOK 05/03 Q1023 NOSIG
VFR 18°C / 5°C 70º 11kt >10km - Clouds and Visibility OK 1021 No Significant change LERI 191800Z 07011KT CAVOK 18/05 Q1021 NOSIG
VFR 19°C / 5°C 80º 11kt >10km - Clouds and Visibility OK 1020 No Significant change LERI 191730Z 08011KT CAVOK 19/05 Q1020 NOSIG
VFR 19°C / 4°C 80º variable 050º to 110º 13kt >10km - Few Clouds 4600ft 1020 No Significant change LERI 191700Z 08013KT 050V110 9999 FEW046 19/04 Q1020 NOSIG
VFR 20°C / 4°C 90º variable 060º to 120º 12kt >10km - Few Clouds 4700ft 1020 No Significant change LERI 191630Z 09012KT 060V120 9999 FEW047 20/04 Q1020 NOSIG

VFR

23°C / 6°C

[მეტი]
ქარი 150º variable 120º to 180º 10kt
ხილვადობა >10km
ამინდი -
ღრუბლები Clouds and Visibility OK
წნევა 1019
ცვლილება No Significant change
დაუმუშავებელი LERI 201530Z 15010KT 120V180 CAVOK 23/06 Q1019 NOSIG

VFR

24°C / 7°C

[მეტი]
ქარი variable 4kt
ხილვადობა >10km
ამინდი -
ღრუბლები Few Clouds 5000ft
წნევა 1019
ცვლილება No Significant change
დაუმუშავებელი LERI 201500Z VRB04KT 9999 FEW050 24/07 Q1019 NOSIG

VFR

23°C / 2°C

[მეტი]
ქარი variable 3kt
ხილვადობა >10km
ამინდი -
ღრუბლები Few Clouds 5000ft
წნევა 1019
ცვლილება No Significant change
დაუმუშავებელი LERI 201430Z VRB03KT 9999 FEW050 23/02 Q1019 NOSIG

VFR

23°C / 3°C

[მეტი]
ქარი 10º variable 290º to 100º 5kt
ხილვადობა >10km
ამინდი -
ღრუბლები Few Clouds 5000ft
წნევა 1019
ცვლილება No Significant change
დაუმუშავებელი LERI 201400Z 01005KT 290V100 9999 FEW050 23/03 Q1019 NOSIG

VFR

22°C / 3°C

[მეტი]
ქარი variable 5kt
ხილვადობა >10km
ამინდი -
ღრუბლები Few Clouds 5000ft
წნევა 1020
ცვლილება No Significant change
დაუმუშავებელი LERI 201330Z VRB05KT 9999 FEW050 22/03 Q1020 NOSIG

VFR

22°C / 4°C

[მეტი]
ქარი variable 3kt
ხილვადობა >10km
ამინდი -
ღრუბლები Clouds and Visibility OK
წნევა 1020
ცვლილება No Significant change
დაუმუშავებელი LERI 201300Z VRB03KT CAVOK 22/04 Q1020 NOSIG

VFR

21°C / 4°C

[მეტი]
ქარი variable 2kt
ხილვადობა >10km
ამინდი -
ღრუბლები Few Clouds 4500ft
წნევა 1021
ცვლილება No Significant change
დაუმუშავებელი LERI 201230Z VRB02KT 9999 FEW045 21/04 Q1021 NOSIG

VFR

21°C / 4°C

[მეტი]
ქარი variable 4kt
ხილვადობა >10km
ამინდი -
ღრუბლები Few Clouds 4500ft
წნევა 1022
ცვლილება No Significant change
დაუმუშავებელი LERI 201200Z VRB04KT 9999 FEW045 21/04 Q1022 NOSIG

VFR

20°C / 4°C

[მეტი]
ქარი variable 3kt
ხილვადობა >10km
ამინდი -
ღრუბლები Few Clouds 4500ft
წნევა 1022
ცვლილება No Significant change
დაუმუშავებელი LERI 201130Z VRB03KT 9999 FEW045 20/04 Q1022 NOSIG

VFR

19°C / 4°C

[მეტი]
ქარი variable 2kt
ხილვადობა >10km
ამინდი -
ღრუბლები Few Clouds 4500ft
წნევა 1023
ცვლილება No Significant change
დაუმუშავებელი LERI 201100Z VRB02KT 9999 FEW045 19/04 Q1023 NOSIG

VFR

18°C / 4°C

[მეტი]
ქარი variable 2kt
ხილვადობა >10km
ამინდი -
ღრუბლები Few Clouds 4500ft
წნევა 1023
ცვლილება No Significant change
დაუმუშავებელი LERI 201030Z VRB02KT 9999 FEW045 18/04 Q1023 NOSIG

VFR

17°C / 4°C

[მეტი]
ქარი 80º variable 030º to 120º 3kt
ხილვადობა >10km
ამინდი -
ღრუბლები Clouds and Visibility OK
წნევა 1023
ცვლილება No Significant change
დაუმუშავებელი LERI 201000Z 08003KT 030V120 CAVOK 17/04 Q1023 NOSIG

VFR

16°C / 4°C

[მეტი]
ქარი variable 2kt
ხილვადობა >10km
ამინდი -
ღრუბლები Clouds and Visibility OK
წნევა 1023
ცვლილება No Significant change
დაუმუშავებელი LERI 200930Z VRB02KT CAVOK 16/04 Q1023 NOSIG

VFR

15°C / 5°C

[მეტი]
ქარი 100º 1kt
ხილვადობა >10km
ამინდი -
ღრუბლები Clouds and Visibility OK
წნევა 1023
ცვლილება No Significant change
დაუმუშავებელი LERI 200900Z 10001KT CAVOK 15/05 Q1023 NOSIG

VFR

14°C / 4°C

[მეტი]
ქარი variable 2kt
ხილვადობა >10km
ამინდი -
ღრუბლები Clouds and Visibility OK
წნევა 1023
ცვლილება No Significant change
დაუმუშავებელი LERI 200830Z VRB02KT CAVOK 14/04 Q1023 NOSIG

VFR

12°C / 6°C

[მეტი]
ქარი variable 2kt
ხილვადობა >10km
ამინდი -
ღრუბლები Clouds and Visibility OK
წნევა 1023
ცვლილება No Significant change
დაუმუშავებელი LERI 200800Z VRB02KT CAVOK 12/06 Q1023 NOSIG

VFR

10°C / 6°C

[მეტი]
ქარი variable 0kt
ხილვადობა >10km
ამინდი -
ღრუბლები Clouds and Visibility OK
წნევა 1023
ცვლილება No Significant change
დაუმუშავებელი LERI 200730Z 00000KT CAVOK 10/06 Q1023 NOSIG

VFR

7°C / 5°C

[მეტი]
ქარი variable 0kt
ხილვადობა >10km
ამინდი -
ღრუბლები Clouds and Visibility OK
წნევა 1023
ცვლილება No Significant change
დაუმუშავებელი LERI 200700Z 00000KT CAVOK 07/05 Q1023 NOSIG

VFR

5°C / 3°C

[მეტი]
ქარი variable 1kt
ხილვადობა >10km
ამინდი -
ღრუბლები Clouds and Visibility OK
წნევა 1023
ცვლილება No Significant change
დაუმუშავებელი LERI 200630Z VRB01KT CAVOK 05/03 Q1023 NOSIG

VFR

5°C / 3°C

[მეტი]
ქარი 270º 1kt
ხილვადობა >10km
ამინდი -
ღრუბლები Clouds and Visibility OK
წნევა 1023
ცვლილება No Significant change
დაუმუშავებელი LERI 200600Z 27001KT CAVOK 05/03 Q1023 NOSIG

VFR

18°C / 5°C

[მეტი]
ქარი 70º 11kt
ხილვადობა >10km
ამინდი -
ღრუბლები Clouds and Visibility OK
წნევა 1021
ცვლილება No Significant change
დაუმუშავებელი LERI 191800Z 07011KT CAVOK 18/05 Q1021 NOSIG

VFR

19°C / 5°C

[მეტი]
ქარი 80º 11kt
ხილვადობა >10km
ამინდი -
ღრუბლები Clouds and Visibility OK
წნევა 1020
ცვლილება No Significant change
დაუმუშავებელი LERI 191730Z 08011KT CAVOK 19/05 Q1020 NOSIG

VFR

19°C / 4°C

[მეტი]
ქარი 80º variable 050º to 110º 13kt
ხილვადობა >10km
ამინდი -
ღრუბლები Few Clouds 4600ft
წნევა 1020
ცვლილება No Significant change
დაუმუშავებელი LERI 191700Z 08013KT 050V110 9999 FEW046 19/04 Q1020 NOSIG

VFR

20°C / 4°C

[მეტი]
ქარი 90º variable 060º to 120º 12kt
ხილვადობა >10km
ამინდი -
ღრუბლები Few Clouds 4700ft
წნევა 1020
ცვლილება No Significant change
დაუმუშავებელი LERI 191630Z 09012KT 060V120 9999 FEW047 20/04 Q1020 NOSIG

TAF Alcantarilla (LERI)-თვის

From till


Maximum Temperature 23ºC on . Minimum Temperature 8ºC on .
From till Wind variable 2kt. Visibility 10km or more. Nil Significant Cloud.
Temporarly from till Wind 210º 10kt.

დაუმუშავებელი: TAF LERI 201100Z 2012/2112 VRB02KT CAVOK TX23/2014Z TN08/2107Z TEMPO 2015/2021 21010KT

რადარის და ნალექების მაჩვენებელი Alcantarilla -თვის

გაწურეთ
Მსუბუქი
ზომიერი
Მძიმე
Ძალიან მძიმე
სეტყვა

მდებარეობის მარკერი მოთავსებულია Alcantarilla -ზე. ეს ანიმაცია აჩვენებს ნალექის რადარს არჩეული დროის დიაპაზონისთვის, ასევე 2h პროგნოზს. წვიმა ან მსუბუქი თოვლი შეიძლება იყოს უხილავი რადარისთვის. ნალექის ინტენსივობა არის ფერადი კოდირებული, დაწყებული ფირუზისფერიდან წითამდე.

მიმდინარე სატელიტისა და წვიმის სურათები Alcantarilla-თვის, ესპანეთი

ლოკაციის მარკერი დაყენებყლია Alcantarillaზე. [მეტი]

რეალურ დროში სატელიტური სურათი აერთიანებს ხილულ სინათლეს დღისით ღამის განმავლობაში ინფრაწითელ გამოსხივებასთან ერთად. ღამით, სურათი არ არის მუქი, რადგან ინფრაწითელ გამოსხივებას შეუძლია ტემპერატურის განსხვავებების დადგენა. სამწუხაროდ, დაბალი ღრუბლები და ნისლი ძნელია განასხვავონ მიწის ტემპერატურისგან და, შესაბამისად, ისინი შეიძლება თითქმის არ ჩანდეს ღამით. Meteosat სატელიტური გამოსახულება ევროპისთვის ახლდება რეალურ დროში ყოველ 5 წუთში. GOES-16/GOES-17 (ჩრდილოეთი და სამხრეთ ამერიკა) და ჰიმავარი (აზია) გამოსახულებები ახლდება ყოველ 10 წუთში.

ნალექი შეფასებულია რადარებიდან და თანამგზავრებიდან. სატელიტების ნალექის შეფასებები ღამით ნაკლებად ზუსტია, ვიდრე დღისით. ნარინჯისფერი ჯვრები აღნიშნავს ადგილებს, სადაც ელვა იყო დაფიქსირებული (ევროპაზე).

საავტორო უფლებები 2023 EUMETSAT / meteoblue. ელვის შესახებ მონაცემები მოწოდებული nowcast მიერ.

თავში დაბრუნება